Historyczne dane pomiarowe

Dodano dane terminowe – wersja testowa.

Dane z okresu 1951-2019

Wersja bazy: 1.34 [2019-03-16, lista zmian], aktualizacja planowana na 2019-04-15

Dane meteo z obszaru Polski uzyskane na podstawie danych udostępnionych przez Instytut Meteorologii i Gospodarki Wodnej – Państwowy Instytut Badawczy.

 

Wybierz Datę:    

       

TemperaturaWilgotnośćZachmurzenieWiatrCiśnienieWidzialnośćZjawiska
 Data    tng td wb rh cc ccl cl cm ch dir g1 g2 mslp ppp      
1999-07-18 00:00:00 11.7--- 10.3 10.991wxwx1wx--1021.7 996.8 0.0---wx
1999-07-18 01:00:00 10.5--- 9.4 9.993wxwx2wx--1021.8 996.8----wx
1999-07-18 02:00:00 10.9--- 10.0 10.494wxwxwx1wx--1021.6 996.6----wx
1999-07-18 03:00:00 10.2--- 9.3 9.794wxwxwxwx1wx--1021.5 996.5----wx
1999-07-18 04:00:00 10.7--- 10.0 10.395wxwxwx1wx--1021.7 996.7----wx
1999-07-18 05:00:00 13.3--- 11.9 12.591wxwx1wx--1021.7 996.9----wx
1999-07-18 06:00:00 15.9--- 13.2 14.384wxwxwxwx2wx--1021.8 997.3 0.0---wx
1999-07-18 07:00:00 19.0--- 13.2 15.569wxwxwx1wx--1021.5 997.2----wx
1999-07-18 08:00:00 21.7--- 12.4 16.156wxwxwxwx1wx--1020.8 996.8----wx
1999-07-18 09:00:00 23.2--- 11.5 16.248wxwxwxwx2wx--1020.6 996.7----wx
1999-07-18 10:00:00 24.3--- 10.2 16.041wxwxwxwx3wx--1020.1 996.3----wx
1999-07-18 11:00:00 24.7--- 8.7 15.536wxwxwxwx2wx--1019.9 996.1----wx
1999-07-18 12:00:00 25.4--- 8.8 15.835wxwxwxwx2wx--1019.4 995.7 0.0---wx
1999-07-18 13:00:00 25.6--- 7.9 15.532wxwxwxwx1wx--1019.0 995.3----wx
1999-07-18 14:00:00 25.8--- 8.7 15.934wxwxwxwx2wx--1018.8 995.1----wx
1999-07-18 15:00:00 25.7--- 8.8 15.934wxwxwx0wx--1018.4 994.7----wx
1999-07-18 16:00:00 25.8--- 10.1 16.537wxwxwx1wx--1018.1 994.5----wx
1999-07-18 17:00:00 25.2--- 10.1 16.339wxwxwxwx2wx--1018.1 994.4----wx
1999-07-18 18:00:00 24.1--- 11.4 16.545wxwxwxwx1wx--1018.2 994.4 0.0---wx
1999-07-18 19:00:00 21.4--- 12.3 15.956wxwxwx1wx--1018.6 994.6----wx
1999-07-18 20:00:00 17.0--- 12.4 14.375wxwx0wx--1019.4 995.0----wx
1999-07-18 21:00:00 15.8--- 12.2 13.779wxwx1wx--1019.6 995.1----wx
1999-07-18 22:00:00 14.1--- 11.3 12.583wxwx0wx--1019.7 995.1----wx
1999-07-18 23:00:00 13.4--- 11.5 12.388wxwx1wx--1019.9 995.2----wx

 

Źródłem pochodzenia danych jest Instytut Meteorologii i Gospodarki Wodnej – Państwowy Instytut Badawczy. Dane Instytutu Meteorologii i Gospodarki Wodnej – Państwowego Instytutu Badawczego zostały przetworzone.

Dane źródłowe można odnaleźć na stronie https://dane.imgw.pl